Time;durP1;ratioP1;P1;durP2;ratioP2;P2;SDS_P1;SDS_P2;PMS_P1;PMS_P2;Temp;Humidity;BMP_temperature;BMP_pressure;BME280_temperature;BME280_humidity;BME280_pressure;Samples;Min_cycle;Max_cycle;Signal;HPM_P1;HPM_P2
2023/01/12 00:01:53;;;;;;;9.93;1.20;;;10.10;99.90;;;;;;4995746;28;20031;-85
2023/01/12 00:04:19;;;;;;;7.97;1.10;;;10.10;99.90;;;;;;4994639;28;20488;-90
2023/01/12 00:06:45;;;;;;;5.40;1.30;;;10.20;99.90;;;;;;4995661;28;20061;-91
2023/01/12 00:09:11;;;;;;;7.90;1.33;;;10.00;99.90;;;;;;4995019;28;20168;-89
2023/01/12 00:11:38;;;;;;;12.10;1.42;;;10.00;99.90;;;;;;4994694;28;20469;-86
2023/01/12 00:14:05;;;;;;;8.07;1.38;;;10.10;99.90;;;;;;4995440;28;20468;-87
2023/01/12 00:16:34;;;;;;;8.93;1.50;;;10.10;99.90;;;;;;4994281;28;20045;-85
2023/01/12 00:19:11;;;;;;;8.00;1.20;;;10.00;99.90;;;;;;4994197;28;20022;-82
2023/01/12 00:21:43;;;;;;;14.00;1.95;;;10.00;99.90;;;;;;4994018;28;20026;-89
2023/01/12 00:24:09;;;;;;;7.60;2.67;;;10.10;99.90;;;;;;4994435;28;20030;-86
2023/01/12 00:26:35;;;;;;;6.68;1.33;;;10.00;99.90;;;;;;4992804;28;20034;-84
2023/01/12 00:29:01;;;;;;;3.85;1.15;;;10.00;99.90;;;;;;4993756;28;20062;-86
2023/01/12 00:31:27;;;;;;;7.80;1.67;;;10.00;99.90;;;;;;4992981;28;20037;-83
2023/01/12 00:33:52;;;;;;;11.85;1.20;;;10.00;99.90;;;;;;4994114;28;20042;-85
2023/01/12 00:36:18;;;;;;;8.90;1.73;;;10.00;99.90;;;;;;4994758;28;20031;-85
2023/01/12 00:38:44;;;;;;;11.60;1.85;;;10.00;99.90;;;;;;4992750;28;20022;-83
2023/01/12 00:46:42;;;;;;;10.30;1.33;;;10.10;99.90;;;;;;4994036;28;20146;-83
2023/01/12 00:49:08;;;;;;;7.28;1.15;;;10.10;99.90;;;;;;4993611;28;20105;-85
2023/01/12 00:51:34;;;;;;;9.85;1.55;;;10.10;99.90;;;;;;4992710;28;20022;-85
2023/01/12 00:54:03;;;;;;;13.68;2.05;;;10.00;99.90;;;;;;4994087;28;20037;-84
2023/01/12 00:56:30;;;;;;;5.88;1.10;;;10.00;99.90;;;;;;4992661;28;20034;-84
2023/01/12 00:58:56;;;;;;;6.95;1.38;;;10.10;99.90;;;;;;4993373;28;20046;-83
2023/01/12 01:01:21;;;;;;;8.25;1.33;;;10.10;99.90;;;;;;4992476;28;20073;-85
2023/01/12 01:03:47;;;;;;;6.82;1.33;;;10.20;99.90;;;;;;4993334;28;20034;-84
2023/01/12 01:06:13;;;;;;;8.18;1.38;;;10.10;99.90;;;;;;4993165;28;20018;-82
2023/01/12 01:08:38;;;;;;;7.15;1.38;;;10.10;99.90;;;;;;4991941;28;20092;-84
2023/01/12 01:11:07;;;;;;;8.15;1.65;;;10.20;99.90;;;;;;4991894;28;20377;-83
2023/01/12 01:13:39;;;;;;;8.45;1.70;;;10.10;99.90;;;;;;4992633;28;20097;-84
2023/01/12 01:16:06;;;;;;;10.23;1.55;;;10.10;99.90;;;;;;4991784;28;20208;-84
2023/01/12 01:18:33;;;;;;;11.73;2.25;;;10.20;99.90;;;;;;4991821;28;20401;-84
2023/01/12 01:21:00;;;;;;;8.80;1.65;;;10.10;99.90;;;;;;4992307;28;20123;-83
2023/01/12 01:23:27;;;;;;;13.25;1.75;;;10.20;99.90;;;;;;4992255;28;20389;-85
2023/01/12 01:25:53;;;;;;;15.15;1.55;;;10.10;99.90;;;;;;4993149;28;20047;-85
2023/01/12 01:28:20;;;;;;;9.10;1.20;;;10.20;99.90;;;;;;4993826;28;20050;-88
2023/01/12 01:30:47;;;;;;;12.35;1.90;;;10.20;99.90;;;;;;4993596;28;20469;-85
2023/01/12 01:33:14;;;;;;;10.93;1.75;;;10.20;99.90;;;;;;4993708;28;20026;-85
2023/01/12 01:35:39;;;;;;;8.13;1.92;;;10.20;99.90;;;;;;4992286;28;20041;-86
2023/01/12 01:38:06;;;;;;;11.23;1.63;;;10.20;99.90;;;;;;4993198;28;20469;-83
2023/01/12 01:40:32;;;;;;;10.10;1.85;;;10.20;99.90;;;;;;4992139;28;20060;-86
2023/01/12 01:42:58;;;;;;;2.50;0.70;;;10.30;99.90;;;;;;4993487;28;20035;-86
2023/01/12 01:45:23;;;;;;;2.03;0.65;;;10.30;99.90;;;;;;4992163;28;20341;-86
2023/01/12 01:47:54;;;;;;;8.30;0.90;;;10.40;99.90;;;;;;4993184;28;20494;-87
2023/01/12 01:50:35;;;;;;;7.95;1.45;;;10.30;99.90;;;;;;4992861;28;20045;-84
2023/01/12 01:53:05;;;;;;;6.35;1.30;;;10.40;99.90;;;;;;4993529;28;20061;-87
2023/01/12 01:55:48;;;;;;;4.88;0.93;;;10.30;99.90;;;;;;4991439;28;20096;-85
2023/01/12 01:58:37;;;;;;;3.92;0.88;;;10.40;99.90;;;;;;4992013;28;20194;-87
2023/01/12 02:01:03;;;;;;;8.05;1.00;;;10.40;99.90;;;;;;4993351;28;20037;-88
2023/01/12 02:03:29;;;;;;;5.00;1.13;;;10.50;99.90;;;;;;4992613;28;20026;-87
2023/01/12 02:05:56;;;;;;;4.82;1.10;;;10.50;99.90;;;;;;4993964;28;20015;-85
2023/01/12 02:08:37;;;;;;;5.00;0.73;;;10.60;99.90;;;;;;4992719;28;20034;-84
2023/01/12 02:16:19;;;;;;;4.95;1.20;;;10.50;99.90;;;;;;4991506;28;20468;-84
2023/01/12 02:16:39;;;;;;;3.22;0.80;;;10.50;99.90;;;;;;4992653;28;20467;-84
2023/01/12 02:19:20;;;;;;;4.13;0.70;;;10.50;99.90;;;;;;4992587;28;20038;-83
2023/01/12 02:22:07;;;;;;;6.85;1.10;;;10.50;99.90;;;;;;4992522;28;20031;-84
2023/01/12 02:24:45;;;;;;;6.70;1.00;;;10.50;99.90;;;;;;4993953;28;20101;-86
2023/01/12 02:27:17;;;;;;;5.20;1.30;;;10.40;99.90;;;;;;4991841;28;20031;-82
2023/01/12 02:30:05;;;;;;;4.70;0.88;;;10.40;99.90;;;;;;4991309;28;20373;-84
2023/01/12 02:33:23;;;;;;;7.57;1.02;;;10.50;99.90;;;;;;4991300;28;20031;-83
2023/01/12 02:35:54;;;;;;;4.05;1.10;;;10.50;99.90;;;;;;4996241;28;20041;-85
2023/01/12 02:38:29;;;;;;;6.35;0.93;;;10.50;99.90;;;;;;5011000;28;20054;-83
2023/01/12 02:41:14;;;;;;;4.07;0.68;;;10.50;99.90;;;;;;5011923;28;20092;-82
2023/01/12 02:43:41;;;;;;;6.70;1.20;;;10.40;99.90;;;;;;5013190;28;20036;-86
2023/01/12 02:46:18;;;;;;;8.98;1.77;;;10.40;99.90;;;;;;5012240;28;20049;-83
2023/01/12 02:48:44;;;;;;;;;;;10.40;99.90;;;;;;5012858;28;20034;-84
2023/01/12 02:51:36;;;;;;;8.60;1.30;;;10.40;99.90;;;;;;5012432;28;20047;-85
2023/01/12 02:54:11;;;;;;;7.03;1.50;;;10.50;99.90;;;;;;5010735;28;20538;-86
2023/01/12 02:56:42;;;;;;;7.53;1.77;;;10.40;99.90;;;;;;5011742;28;20474;-85
2023/01/12 02:59:25;;;;;;;10.13;1.55;;;10.40;99.90;;;;;;5012421;28;20034;-86
2023/01/12 03:01:55;;;;;;;5.18;1.40;;;10.50;99.90;;;;;;5010918;28;20030;-85
2023/01/12 03:04:22;;;;;;;9.18;1.65;;;10.50;99.90;;;;;;5010748;28;20111;-86
2023/01/12 03:06:56;;;;;;;3.75;1.20;;;10.50;99.90;;;;;;5011409;28;20041;-84
2023/01/12 03:09:33;;;;;;;10.10;1.60;;;10.40;99.90;;;;;;5009922;28;20133;-82
2023/01/12 03:12:03;;;;;;;12.27;1.73;;;10.50;99.90;;;;;;5011492;28;20018;-83
2023/01/12 03:14:35;;;;;;;10.52;2.10;;;10.60;99.90;;;;;;5013711;28;20124;-86
2023/01/12 03:17:06;;;;;;;9.40;1.30;;;10.60;99.90;;;;;;5014282;28;20053;-85
2023/01/12 03:19:32;;;;;;;3.42;1.05;;;10.50;99.90;;;;;;5015442;28;20038;-84
2023/01/12 03:22:02;;;;;;;5.55;1.20;;;10.50;99.90;;;;;;5015658;28;20103;-86
2023/01/12 03:24:33;;;;;;;6.20;0.93;;;10.40;99.90;;;;;;5015473;28;20038;-85
2023/01/12 03:27:04;;;;;;;8.93;1.30;;;10.40;99.90;;;;;;5015828;28;20029;-84
2023/01/12 03:29:38;;;;;;;11.95;1.38;;;10.40;99.90;;;;;;5014851;28;20045;-85
2023/01/12 03:32:05;;;;;;;4.80;1.27;;;10.40;99.90;;;;;;5013339;28;20033;-85
2023/01/12 03:34:33;;;;;;;7.40;1.52;;;10.40;99.90;;;;;;5014297;28;20026;-81
2023/01/12 03:37:11;;;;;;;12.18;2.00;;;10.40;99.90;;;;;;5013361;28;20026;-85
2023/01/12 03:39:56;;;;;;;5.57;1.08;;;10.40;99.90;;;;;;5015040;28;20036;-82
2023/01/12 03:42:56;;;;;;;4.35;1.00;;;10.40;99.90;;;;;;5014548;28;20030;-85
2023/01/12 03:45:41;;;;;;;6.28;1.08;;;10.30;99.90;;;;;;5014883;28;20030;-80
2023/01/12 03:48:28;;;;;;;5.90;1.20;;;10.30;99.90;;;;;;5015728;28;20037;-84
2023/01/12 03:51:20;;;;;;;2.13;1.02;;;10.40;99.90;;;;;;5015427;28;20037;-84
2023/01/12 03:53:48;;;;;;;2.85;0.75;;;10.50;99.90;;;;;;5004061;28;20096;-84
2023/01/12 03:56:15;;;;;;;9.07;1.38;;;10.40;99.90;;;;;;5013685;28;20489;-86
2023/01/12 03:58:42;;;;;;;3.78;0.90;;;10.50;99.90;;;;;;5014269;28;20130;-83
2023/01/12 04:01:08;;;;;;;2.15;0.80;;;10.60;99.90;;;;;;5013538;28;20030;-88
2023/01/12 04:03:33;;;;;;;3.92;1.10;;;10.60;99.90;;;;;;5013132;28;20022;-87
2023/01/12 04:05:59;;;;;;;4.80;1.02;;;10.80;99.90;;;;;;5014770;28;20364;-86
2023/01/12 04:08:27;;;;;;;5.72;1.48;;;10.60;99.90;;;;;;5014950;28;20121;-87
2023/01/12 04:10:53;;;;;;;2.05;1.05;;;10.60;99.90;;;;;;5012994;28;20084;-84
2023/01/12 04:13:18;;;;;;;6.55;1.13;;;10.50;99.90;;;;;;5013317;28;20354;-87
2023/01/12 04:15:45;;;;;;;8.90;1.05;;;10.40;99.90;;;;;;5015103;28;20096;-84
2023/01/12 04:18:12;;;;;;;5.75;1.23;;;10.50;99.90;;;;;;5014195;28;20117;-86
2023/01/12 04:20:38;;;;;;;4.03;0.90;;;10.40;99.90;;;;;;5013762;28;20041;-85
2023/01/12 04:23:06;;;;;;;2.25;0.82;;;10.40;99.90;;;;;;5013347;28;20173;-84
2023/01/12 04:25:33;;;;;;;2.40;0.70;;;10.40;99.90;;;;;;5011547;28;20045;-85
2023/01/12 04:28:02;;;;;;;6.88;1.00;;;10.50;99.90;;;;;;5015105;28;20057;-86
2023/01/12 04:30:33;;;;;;;4.32;0.73;;;10.50;99.90;;;;;;5016557;28;20113;-83
2023/01/12 04:33:04;;;;;;;6.82;1.30;;;10.50;99.90;;;;;;5014731;28;20022;-86
2023/01/12 04:35:31;;;;;;;3.67;0.85;;;10.40;99.90;;;;;;5015686;28;20034;-87
2023/01/12 04:37:56;;;;;;;4.72;0.98;;;10.40;99.90;;;;;;5015929;28;20034;-87
2023/01/12 04:40:23;;;;;;;4.25;1.38;;;10.40;99.90;;;;;;5014542;28;20048;-84
2023/01/12 04:43:01;;;;;;;2.08;0.82;;;10.40;99.90;;;;;;5013540;28;20049;-82
2023/01/12 04:45:38;;;;;;;3.75;0.85;;;10.40;99.90;;;;;;5012998;28;20029;-85
2023/01/12 04:48:09;;;;;;;2.17;0.82;;;10.40;99.90;;;;;;5016125;28;20494;-83
2023/01/12 04:50:35;;;;;;;4.47;0.88;;;10.40;99.90;;;;;;5015278;28;20368;-83
2023/01/12 04:53:01;;;;;;;3.83;0.88;;;10.40;99.90;;;;;;5014435;28;20030;-82
2023/01/12 04:55:27;;;;;;;4.35;1.00;;;10.50;99.90;;;;;;5018530;28;20090;-86
2023/01/12 04:57:53;;;;;;;2.75;0.70;;;10.60;99.90;;;;;;5023851;28;20116;-84
2023/01/12 05:00:21;;;;;;;2.83;0.85;;;10.50;99.90;;;;;;5013175;28;20022;-87
2023/01/12 05:02:46;;;;;;;;;;;10.50;99.90;;;;;;5013358;28;20368;-87
2023/01/12 05:05:12;;;;;;;4.45;0.77;;;10.40;99.90;;;;;;5012097;28;19975;-86
2023/01/12 05:10:21;;;;;;;1.95;0.70;;;10.40;99.90;;;;;;5011514;28;20403;-82
2023/01/12 05:10:28;;;;;;;2.97;0.63;;;10.40;99.90;;;;;;5012755;28;20492;-86
2023/01/12 05:12:54;;;;;;;2.65;0.55;;;10.40;99.90;;;;;;5011503;28;20049;-82
2023/01/12 05:15:20;;;;;;;5.47;0.88;;;10.40;99.90;;;;;;5012720;28;20061;-85
2023/01/12 05:17:46;;;;;;;3.90;0.82;;;10.40;99.90;;;;;;5013621;28;20040;-88
2023/01/12 05:20:12;;;;;;;2.60;0.80;;;10.30;99.90;;;;;;5012265;28;20037;-85
2023/01/12 05:22:38;;;;;;;2.55;0.77;;;10.40;99.90;;;;;;5013611;28;20407;-86
2023/01/12 05:25:04;;;;;;;6.55;0.82;;;10.30;99.90;;;;;;5012989;28;20056;-87
2023/01/12 05:27:30;;;;;;;3.33;0.50;;;10.30;99.90;;;;;;5012623;28;20026;-87
2023/01/12 05:29:58;;;;;;;3.95;0.70;;;10.30;99.90;;;;;;5013714;28;20356;-88
2023/01/12 05:32:24;;;;;;;;;;;10.40;99.90;;;;;;5013252;28;20179;-89
2023/01/12 05:34:50;;;;;;;4.20;0.88;;;10.30;99.90;;;;;;5013805;28;19909;-87
2023/01/12 05:37:15;;;;;;;5.32;0.77;;;10.30;99.90;;;;;;5013013;28;20041;-89
2023/01/12 05:39:41;;;;;;;4.78;1.27;;;10.30;99.90;;;;;;5012032;28;20034;-87
2023/01/12 05:44:52;;;;;;;2.75;0.70;;;10.30;99.90;;;;;;5012338;28;20103;-84
2023/01/12 05:47:17;;;;;;;2.53;0.68;;;10.40;99.90;;;;;;5010997;28;20379;-85
2023/01/12 05:49:43;;;;;;;2.38;0.80;;;10.40;99.90;;;;;;5011464;28;20026;-84
2023/01/12 05:52:09;;;;;;;2.50;0.73;;;10.30;99.90;;;;;;5012284;28;20487;-89
2023/01/12 05:54:34;;;;;;;3.03;0.50;;;10.30;99.90;;;;;;5012372;28;20030;-87
2023/01/12 05:57:00;;;;;;;4.72;0.70;;;10.30;99.90;;;;;;5012618;28;20080;-87
2023/01/12 05:59:25;;;;;;;2.60;0.52;;;10.40;99.90;;;;;;5011604;28;20045;-87
2023/01/12 06:01:52;;;;;;;3.40;0.85;;;10.40;99.90;;;;;;5012691;28;20034;-87
2023/01/12 06:04:17;;;;;;;3.75;0.70;;;10.30;99.90;;;;;;5011620;28;20030;-86
2023/01/12 06:06:45;;;;;;;2.30;0.40;;;10.30;99.90;;;;;;5012606;28;20096;-88
2023/01/12 06:09:10;;;;;;;4.05;1.02;;;10.30;99.90;;;;;;5013237;28;20029;-90
2023/01/12 06:14:20;;;;;;;2.05;0.70;;;10.50;99.90;;;;;;4993356;28;20049;-89
2023/01/12 06:16:46;;;;;;;2.13;0.40;;;10.40;99.90;;;;;;4993907;28;20027;-89
2023/01/12 06:19:12;;;;;;;2.63;0.55;;;10.40;99.90;;;;;;4991899;28;20031;-88
2023/01/12 06:21:37;;;;;;;5.05;0.88;;;10.40;99.90;;;;;;4993059;28;20031;-85
2023/01/12 06:24:04;;;;;;;2.42;0.50;;;10.40;99.90;;;;;;4992646;28;20113;-83
2023/01/12 06:26:29;;;;;;;2.22;0.70;;;10.40;99.90;;;;;;4990754;28;20023;-81
2023/01/12 06:28:55;;;;;;;3.10;0.60;;;10.50;99.90;;;;;;4993494;28;20042;-84
2023/01/12 06:31:21;;;;;;;2.65;0.60;;;10.50;99.90;;;;;;4990552;28;20553;-83
2023/01/12 06:33:46;;;;;;;2.47;0.63;;;10.40;99.90;;;;;;4991850;28;20034;-82
2023/01/12 06:36:12;;;;;;;2.60;0.60;;;10.40;99.90;;;;;;4992605;28;20093;-82
2023/01/12 06:38:38;;;;;;;2.22;0.55;;;10.40;99.90;;;;;;4991921;28;20101;-83
2023/01/12 06:42:27;;;;;;;4.13;0.82;;;10.40;99.90;;;;;;4991347;28;20041;-82
2023/01/12 06:43:55;;;;;;;1.17;0.32;;;10.50;99.90;;;;;;4991478;28;20033;-81
2023/01/12 06:46:20;;;;;;;3.88;0.73;;;10.50;99.90;;;;;;4990206;28;20039;-83
2023/01/12 06:48:46;;;;;;;1.88;0.38;;;10.50;99.90;;;;;;4993350;28;20631;-82
2023/01/12 06:51:14;;;;;;;4.88;0.50;;;10.50;99.90;;;;;;4994821;28;20065;-83
2023/01/12 06:53:40;;;;;;;1.50;0.20;;;10.40;99.90;;;;;;4993534;28;20440;-82
2023/01/12 06:56:06;;;;;;;1.65;0.35;;;10.50;99.90;;;;;;4995231;28;20039;-83
2023/01/12 06:58:31;;;;;;;3.85;0.70;;;10.40;99.90;;;;;;4994724;28;20369;-83
2023/01/12 07:01:01;;;;;;;1.20;0.47;;;10.50;99.90;;;;;;4996474;28;20080;-85
2023/01/12 07:03:27;;;;;;;1.10;0.50;;;10.50;99.90;;;;;;4994634;28;20034;-85
2023/01/12 07:05:52;;;;;;;2.00;0.47;;;10.50;99.90;;;;;;4995038;28;20085;-85
2023/01/12 07:08:18;;;;;;;3.75;1.20;;;10.50;99.90;;;;;;4994897;28;20034;-84
2023/01/12 07:10:45;;;;;;;5.95;0.80;;;10.60;99.90;;;;;;4994082;28;20166;-85
2023/01/12 07:13:11;;;;;;;2.10;0.50;;;10.50;99.90;;;;;;4995026;28;20023;-85
2023/01/12 07:15:37;;;;;;;1.52;0.35;;;10.60;99.90;;;;;;4994399;28;20340;-84
2023/01/12 07:18:03;;;;;;;1.08;0.60;;;10.50;99.90;;;;;;4995934;28;20038;-85
2023/01/12 07:20:28;;;;;;;1.60;0.60;;;10.50;99.90;;;;;;4995272;28;20041;-83
2023/01/12 07:22:55;;;;;;;1.05;0.38;;;10.50;99.90;;;;;;4994709;28;20265;-85
2023/01/12 07:25:21;;;;;;;4.78;1.73;;;10.50;99.90;;;;;;4995229;28;20039;-83
2023/01/12 07:27:51;;;;;;;3.13;1.08;;;10.50;99.90;;;;;;4993482;28;20423;-87
2023/01/12 07:30:19;;;;;;;2.53;0.60;;;10.50;99.90;;;;;;4993768;28;20096;-83
2023/01/12 07:32:44;;;;;;;1.38;0.40;;;10.40;99.90;;;;;;4993618;28;20049;-84
2023/01/12 07:35:10;;;;;;;1.20;0.50;;;10.50;99.90;;;;;;4994726;28;20031;-82
2023/01/12 07:37:36;;;;;;;3.08;0.40;;;10.40;99.90;;;;;;4994519;28;20031;-83
2023/01/12 07:40:01;;;;;;;1.05;0.40;;;10.40;99.90;;;;;;4994893;28;20065;-83
2023/01/12 07:42:27;;;;;;;0.95;0.40;;;10.40;99.90;;;;;;4993653;28;20200;-85
2023/01/12 07:44:53;;;;;;;2.70;0.40;;;10.30;99.90;;;;;;4995635;28;20034;-82
2023/01/12 07:47:19;;;;;;;1.75;0.38;;;10.40;99.90;;;;;;4995184;28;20058;-82
2023/01/12 07:49:45;;;;;;;1.90;0.60;;;10.30;99.90;;;;;;4994278;28;20436;-81
2023/01/12 07:52:11;;;;;;;0.93;0.35;;;10.40;99.90;;;;;;4993235;28;20096;-82
2023/01/12 07:54:37;;;;;;;1.23;0.30;;;10.50;99.90;;;;;;4992962;28;20034;-82
2023/01/12 07:57:05;;;;;;;1.90;1.15;;;10.30;99.90;;;;;;4995287;28;20165;-83
2023/01/12 07:59:31;;;;;;;1.25;0.40;;;10.30;99.90;;;;;;4993081;28;20030;-84
2023/01/12 08:01:57;;;;;;;1.35;0.25;;;10.20;99.90;;;;;;4993421;28;20439;-83
2023/01/12 08:04:22;;;;;;;0.98;0.30;;;10.20;99.90;;;;;;4994221;28;20465;-85
2023/01/12 08:06:48;;;;;;;2.35;0.40;;;10.20;99.90;;;;;;4992696;28;20106;-83
2023/01/12 08:09:14;;;;;;;3.97;0.50;;;10.20;99.90;;;;;;4994141;28;20061;-86
2023/01/12 08:11:39;;;;;;;11.20;2.55;;;10.20;99.90;;;;;;4993812;28;20093;-81
2023/01/12 08:14:05;;;;;;;3.20;1.63;;;10.20;99.90;;;;;;4992829;28;20027;-82
2023/01/12 08:16:38;;;;;;;1.40;0.38;;;10.20;99.90;;;;;;4992792;28;20034;-81
2023/01/12 08:19:15;;;;;;;1.42;0.40;;;10.30;99.90;;;;;;4992986;28;20053;-83
2023/01/12 08:21:48;;;;;;;4.03;1.10;;;10.20;99.90;;;;;;4993076;28;20437;-84
2023/01/12 08:24:18;;;;;;;1.95;0.40;;;10.20;99.90;;;;;;4994416;28;20424;-85
2023/01/12 08:26:47;;;;;;;0.20;0.20;;;10.20;99.90;;;;;;4993608;28;20026;-84
2023/01/12 08:29:44;;;;;;;0.73;0.28;;;10.20;99.90;;;;;;4993524;28;20128;-84
2023/01/12 08:32:12;;;;;;;0.55;0.30;;;10.20;99.90;;;;;;4992694;28;20031;-85
2023/01/12 08:34:40;;;;;;;3.30;0.30;;;10.20;99.90;;;;;;4993367;28;20041;-84
2023/01/12 08:37:06;;;;;;;;;;;10.30;99.90;;;;;;4992773;28;20041;-84
2023/01/12 08:39:35;;;;;;;0.68;0.20;;;10.20;99.90;;;;;;4993464;28;19913;-83
2023/01/12 08:42:02;;;;;;;2.25;0.55;;;10.20;99.90;;;;;;4993714;28;20053;-83
2023/01/12 08:44:34;;;;;;;1.63;0.47;;;10.10;99.90;;;;;;4992126;28;20133;-82
2023/01/12 08:47:01;;;;;;;1.88;0.20;;;10.20;99.90;;;;;;4993234;28;20487;-83
2023/01/12 08:49:28;;;;;;;1.05;0.30;;;10.20;99.90;;;;;;4991806;28;20097;-80
2023/01/12 08:51:54;;;;;;;2.03;0.55;;;10.20;99.90;;;;;;4993307;28;20065;-82
2023/01/12 08:54:21;;;;;;;2.70;0.55;;;10.20;99.90;;;;;;4993311;28;20054;-80
2023/01/12 08:56:48;;;;;;;0.85;0.50;;;10.20;99.90;;;;;;4992415;28;20098;-83
2023/01/12 08:59:15;;;;;;;0.65;0.22;;;10.20;99.90;;;;;;4991650;28;20034;-82
2023/01/12 09:01:41;;;;;;;1.83;0.30;;;10.20;99.90;;;;;;4993464;28;20105;-83
2023/01/12 09:04:07;;;;;;;1.05;0.30;;;10.20;99.90;;;;;;4992898;28;20033;-80
2023/01/12 09:06:41;;;;;;;0.43;0.30;;;10.20;99.90;;;;;;4991567;28;20026;-82
2023/01/12 09:09:09;;;;;;;1.85;0.38;;;10.20;99.90;;;;;;4992995;28;20420;-81
2023/01/12 09:11:36;;;;;;;;;;;10.20;99.90;;;;;;4991663;28;20465;-83
2023/01/12 09:14:02;;;;;;;3.85;0.40;;;10.20;99.90;;;;;;4992780;28;19918;-85
2023/01/12 09:16:30;;;;;;;0.40;0.17;;;10.20;99.90;;;;;;4992800;28;20106;-80
2023/01/12 09:18:56;;;;;;;0.57;0.32;;;10.20;99.90;;;;;;4991894;28;20026;-84
2023/01/12 09:21:24;;;;;;;2.10;0.45;;;10.30;99.90;;;;;;4992546;28;20067;-83
2023/01/12 09:23:51;;;;;;;1.75;0.20;;;10.30;99.90;;;;;;4993314;28;20323;-83
2023/01/12 09:26:30;;;;;;;0.73;0.20;;;10.40;99.90;;;;;;4992202;28;20031;-84
2023/01/12 09:28:58;;;;;;;1.58;0.10;;;10.40;99.90;;;;;;4991230;28;20065;-84
2023/01/12 09:31:24;;;;;;;1.65;0.40;;;10.50;99.90;;;;;;4992559;28;20324;-83
2023/01/12 09:33:51;;;;;;;1.73;0.25;;;10.40;99.90;;;;;;4991326;28;20026;-85
2023/01/12 09:36:22;;;;;;;0.60;0.20;;;10.40;99.90;;;;;;4992866;28;20041;-83
2023/01/12 09:38:48;;;;;;;1.77;0.40;;;10.50;99.90;;;;;;4991539;28;20038;-82
2023/01/12 09:47:35;;;;;;;1.92;0.45;;;10.50;99.90;;;;;;4994733;28;20515;-83
2023/01/12 09:50:16;;;;;;;0.25;0.25;;;10.50;99.90;;;;;;4993767;28;20053;-84
2023/01/12 09:52:57;;;;;;;2.13;0.43;;;10.70;99.90;;;;;;4993243;28;20413;-85
2023/01/12 09:55:26;;;;;;;1.17;0.43;;;10.60;99.90;;;;;;4992560;28;20038;-83
2023/01/12 09:58:01;;;;;;;2.60;0.57;;;10.60;99.90;;;;;;4991009;28;20026;-82
2023/01/12 10:00:27;;;;;;;1.90;0.90;;;10.50;99.90;;;;;;4990955;28;20112;-83
2023/01/12 10:03:15;;;;;;;1.25;0.20;;;10.60;99.90;;;;;;4994628;28;20357;-86
2023/01/12 10:05:47;;;;;;;;;;;10.60;99.90;;;;;;4994028;28;20134;-84
2023/01/12 10:08:36;;;;;;;1.30;0.30;;;10.60;99.90;;;;;;4992592;28;20671;-83
2023/01/12 10:11:15;;;;;;;4.25;1.50;;;10.50;99.90;;;;;;4992553;28;20042;-83
2023/01/12 10:14:18;;;;;;;0.47;0.25;;;10.60;99.90;;;;;;4992554;28;20037;-80
2023/01/12 10:16:49;;;;;;;0.43;0.30;;;10.60;99.90;;;;;;4991786;28;20091;-84
2023/01/12 10:19:24;;;;;;;0.45;0.25;;;10.60;99.90;;;;;;4991288;28;20207;-83
2023/01/12 10:21:52;;;;;;;3.92;0.40;;;10.50;99.90;;;;;;4991249;28;20117;-84
2023/01/12 10:24:21;;;;;;;0.88;0.30;;;10.60;99.90;;;;;;4993457;28;20057;-84
2023/01/12 10:26:55;;;;;;;0.47;0.22;;;10.60;99.90;;;;;;4994992;28;20057;-82
2023/01/12 10:29:21;;;;;;;0.60;0.40;;;10.70;99.90;;;;;;4996120;28;20042;-85
2023/01/12 10:31:46;;;;;;;0.32;0.30;;;10.60;99.90;;;;;;4997401;28;20120;-83
2023/01/12 10:34:12;;;;;;;2.08;0.30;;;10.60;99.90;;;;;;4995564;28;20493;-84
2023/01/12 10:36:43;;;;;;;2.10;0.40;;;10.60;99.90;;;;;;4997305;28;20026;-82
2023/01/12 10:39:29;;;;;;;2.10;0.47;;;10.60;99.90;;;;;;4998355;28;20037;-84
2023/01/12 10:45:20;;;;;;;1.20;0.47;;;10.80;99.90;;;;;;4998212;28;20049;-85
2023/01/12 10:47:48;;;;;;;1.30;0.30;;;10.80;99.90;;;;;;4996528;28;20034;-86
2023/01/12 10:50:22;;;;;;;1.73;0.70;;;11.00;99.90;;;;;;4997790;28;20046;-84
2023/01/12 10:53:00;;;;;;;2.67;0.52;;;10.90;99.90;;;;;;4996243;28;20077;-84
2023/01/12 10:55:30;;;;;;;1.10;0.50;;;10.90;99.90;;;;;;4997218;28;20031;-83
2023/01/12 10:57:56;;;;;;;0.82;0.43;;;11.00;99.90;;;;;;4995285;28;20023;-84
2023/01/12 11:00:25;;;;;;;4.40;0.80;;;11.00;99.90;;;;;;4994908;28;20033;-83
2023/01/12 11:02:51;;;;;;;0.68;0.40;;;11.10;99.90;;;;;;4997741;28;20097;-85
2023/01/12 11:05:36;;;;;;;1.98;1.00;;;11.10;99.90;;;;;;4996051;28;20420;-84
2023/01/12 11:08:19;;;;;;;1.52;0.63;;;11.10;99.90;;;;;;4994653;28;20050;-85
2023/01/12 11:10:45;;;;;;;0.50;0.40;;;11.30;99.90;;;;;;4995724;28;20457;-85
2023/01/12 11:13:35;;;;;;;1.52;0.73;;;11.30;99.90;;;;;;4995914;28;20037;-86
2023/01/12 11:16:27;;;;;;;1.65;0.70;;;11.40;99.90;;;;;;4994624;28;20356;-83
2023/01/12 11:19:02;;;;;;;0.32;0.17;;;11.40;99.90;;;;;;4994000;28;20026;-83
2023/01/12 11:21:35;;;;;;;0.57;0.40;;;11.50;99.90;;;;;;4994708;28;20360;-84
2023/01/12 11:24:22;;;;;;;0.95;0.40;;;11.50;99.90;;;;;;4994597;28;20034;-83
2023/01/12 11:26:59;;;;;;;1.23;0.68;;;11.60;99.90;;;;;;4995373;28;20062;-85
2023/01/12 11:29:35;;;;;;;0.55;0.47;;;11.60;99.90;;;;;;4995169;28;20492;-83
2023/01/12 11:32:38;;;;;;;2.33;0.45;;;11.60;99.90;;;;;;4994929;28;20087;-84
2023/01/12 11:35:25;;;;;;;2.83;0.50;;;11.70;99.90;;;;;;4995348;28;20468;-87
2023/01/12 11:37:54;;;;;;;1.73;0.40;;;11.70;99.90;;;;;;4993947;28;20030;-85
2023/01/12 11:40:40;;;;;;;2.72;0.88;;;11.80;99.90;;;;;;4995711;28;20727;-90
2023/01/12 11:46:33;;;;;;;2.58;1.00;;;11.80;99.90;;;;;;4994838;28;20053;-84
2023/01/12 11:49:10;;;;;;;0.50;0.40;;;11.80;99.90;;;;;;4994132;28;20034;-86
2023/01/12 11:51:36;;;;;;;0.82;0.40;;;11.80;99.90;;;;;;4994096;28;20036;-76
2023/01/12 11:54:04;;;;;;;1.30;0.50;;;11.90;99.90;;;;;;4993036;28;20042;-76
2023/01/12 11:56:44;;;;;;;0.88;0.63;;;11.90;99.90;;;;;;4993037;28;20093;-79
2023/01/12 11:59:34;;;;;;;0.82;0.60;;;11.90;99.90;;;;;;4993587;28;20465;-74
2023/01/12 12:02:15;;;;;;;1.20;0.45;;;11.90;99.90;;;;;;4994366;28;20034;-76
2023/01/12 12:04:52;;;;;;;2.42;1.20;;;11.90;99.90;;;;;;4993139;28;20054;-77
2023/01/12 12:07:49;;;;;;;0.80;0.77;;;11.90;99.90;;;;;;4993143;28;20042;-76
2023/01/12 12:10:31;;;;;;;2.07;0.70;;;11.90;99.90;;;;;;4994496;28;20480;-78
2023/01/12 12:13:06;;;;;;;0.60;0.52;;;11.90;99.90;;;;;;4993657;28;20023;-77
2023/01/12 12:15:44;;;;;;;1.98;1.45;;;12.00;99.90;;;;;;4994070;28;20024;-77
2023/01/12 12:18:27;;;;;;;1.42;0.55;;;12.10;99.90;;;;;;4994798;28;20030;-76
2023/01/12 12:21:30;;;;;;;1.92;0.65;;;12.00;99.90;;;;;;4994054;28;20050;-76
2023/01/12 12:24:21;;;;;;;1.15;0.35;;;12.00;99.90;;;;;;4993213;28;20034;-76
2023/01/12 12:27:24;;;;;;;0.30;0.30;;;12.10;99.90;;;;;;4992907;28;20161;-75
2023/01/12 12:30:22;;;;;;;1.15;0.60;;;12.10;99.90;;;;;;4993431;28;20042;-77
2023/01/12 12:33:01;;;;;;;3.38;0.65;;;12.10;99.90;;;;;;4991667;28;20544;-76
2023/01/12 12:35:48;;;;;;;0.82;0.40;;;12.20;99.90;;;;;;4992161;28;20037;-79
2023/01/12 12:38:36;;;;;;;2.88;1.10;;;12.20;99.90;;;;;;4993279;28;20035;-75
2023/01/12 12:47:33;;;;;;;1.48;1.00;;;12.30;99.90;;;;;;4992677;28;20045;-76
2023/01/12 12:50:01;;;;;;;1.73;1.02;;;12.30;99.90;;;;;;4992392;28;20061;-76
2023/01/12 12:52:37;;;;;;;3.42;0.57;;;12.30;99.90;;;;;;4991675;28;20030;-75
2023/01/12 12:55:05;;;;;;;1.85;0.82;;;12.30;99.90;;;;;;4992986;28;20528;-77
2023/01/12 12:57:31;;;;;;;;;;;12.40;99.90;;;;;;4992034;28;20353;-76
2023/01/12 13:00:01;;;;;;;0.40;0.30;;;12.40;99.90;;;;;;4993400;28;19902;-76
2023/01/12 13:02:54;;;;;;;1.92;0.85;;;12.40;99.90;;;;;;4992711;28;20030;-75
2023/01/12 13:05:42;;;;;;;0.85;0.40;;;12.40;99.90;;;;;;4992583;28;20027;-77
2023/01/12 13:08:22;;;;;;;0.35;0.32;;;12.40;99.90;;;;;;4992213;28;20045;-77
2023/01/12 13:10:50;;;;;;;2.00;0.70;;;12.50;99.90;;;;;;4992067;28;20053;-75
2023/01/12 13:13:34;;;;;;;0.80;0.60;;;12.40;99.90;;;;;;4992383;28;20030;-75
2023/01/12 13:16:18;;;;;;;0.80;0.50;;;12.40;99.90;;;;;;4992480;28;20481;-76
2023/01/12 13:18:49;;;;;;;1.30;0.60;;;12.40;99.90;;;;;;4991887;28;20491;-77
2023/01/12 13:21:41;;;;;;;1.05;0.57;;;12.40;99.90;;;;;;4992856;28;20030;-77
2023/01/12 13:24:10;;;;;;;1.67;0.30;;;12.60;99.90;;;;;;4991820;28;20070;-77
2023/01/12 13:26:42;;;;;;;1.50;0.70;;;12.50;99.90;;;;;;4991251;28;20022;-76
2023/01/12 13:29:36;;;;;;;1.13;0.63;;;12.40;99.90;;;;;;4992917;28;20065;-77
2023/01/12 13:32:35;;;;;;;1.00;0.80;;;12.40;99.90;;;;;;4992829;28;20026;-78
2023/01/12 13:35:00;;;;;;;1.42;0.90;;;12.40;99.90;;;;;;4992787;28;20088;-76
2023/01/12 13:37:35;;;;;;;2.90;1.40;;;12.40;99.90;;;;;;4992084;28;20262;-77
2023/01/12 13:40:10;;;;;;;1.85;0.80;;;12.40;99.90;;;;;;4991325;28;20089;-78
2023/01/12 13:45:22;;;;;;;1.83;0.60;;;12.50;99.90;;;;;;4993125;28;20057;-77
2023/01/12 13:47:50;;;;;;;5.40;1.10;;;12.50;99.90;;;;;;4992984;28;20425;-77